Terminal Aerodrome Forecast
Issued by NWS

Home | Current Version | Previous Version | Text Only | Print | Product List | Glossary Off
Versions: 1 2 3 4 5 6 7 8 9 10 11 12 13

212
FTUS45 KGGW 231128
TAFSDY
TAF
KSDY 231128Z 2312/2412 34005KT P6SM BKN035
     FM231700 02006KT P6SM VCSH OVC030
     FM240500 35006KT P6SM -SHRA OVC020=

USA.gov is the U.S. government's official web portal to all federal, state and local government web resources and services.